Time;durP1;ratioP1;P1;durP2;ratioP2;P2;SDS_P1;SDS_P2;PMS_P1;PMS_P2;Temp;Humidity;BMP_temperature;BMP_pressure;BME280_temperature;BME280_humidity;BME280_pressure;Samples;Min_cycle;Max_cycle;Signal;HPM_P1;HPM_P2
2022/08/31 00:04:40;;;;;;;1.10;1.10;;;13.90;99.90;;;;;;5220430;28;20845;-49
2022/08/31 00:07:11;;;;;;;1.03;1.03;;;13.80;99.90;;;;;;5213993;28;20416;-49
2022/08/31 00:09:42;;;;;;;2.63;1.20;;;13.80;99.90;;;;;;5222845;28;20435;-48
2022/08/31 00:12:12;;;;;;;1.03;0.93;;;13.70;99.90;;;;;;5223423;28;20202;-49
2022/08/31 00:14:43;;;;;;;7.17;1.30;;;13.70;99.90;;;;;;5220943;28;20726;-48
2022/08/31 00:17:14;;;;;;;0.93;0.93;;;13.60;99.90;;;;;;5208628;28;20260;-51
2022/08/31 00:19:45;;;;;;;2.30;1.20;;;13.60;99.90;;;;;;5217131;28;20203;-49
2022/08/31 00:22:15;;;;;;;1.50;1.43;;;13.60;99.90;;;;;;5232391;28;20839;-49
2022/08/31 00:24:46;;;;;;;2.20;1.03;;;13.50;99.90;;;;;;5208007;28;20245;-49
2022/08/31 00:27:17;;;;;;;1.17;1.07;;;13.60;99.90;;;;;;5225398;28;20201;-49
2022/08/31 00:29:47;;;;;;;3.57;1.10;;;13.50;99.90;;;;;;5208625;28;20194;-48
2022/08/31 00:32:18;;;;;;;5.50;1.37;;;13.60;99.90;;;;;;5197611;28;20234;-50
2022/08/31 00:34:49;;;;;;;1.57;1.20;;;13.50;99.90;;;;;;5216356;28;20232;-48
2022/08/31 00:37:19;;;;;;;2.73;1.37;;;13.50;99.90;;;;;;5205307;28;20226;-49
2022/08/31 00:39:51;;;;;;;5.93;1.60;;;13.40;99.90;;;;;;5231018;28;20186;-48
2022/08/31 00:42:22;;;;;;;1.30;1.17;;;13.40;99.90;;;;;;5215665;28;20638;-48
2022/08/31 00:44:53;;;;;;;1.43;1.20;;;13.40;99.90;;;;;;5201307;28;20439;-48
2022/08/31 00:47:23;;;;;;;3.97;1.30;;;13.40;99.90;;;;;;5234495;28;20194;-49
2022/08/31 00:49:54;;;;;;;1.73;1.63;;;13.30;99.90;;;;;;5205183;28;20194;-48
2022/08/31 00:52:30;;;;;;;1.90;1.53;;;13.30;99.90;;;;;;5224425;28;20240;-48
2022/08/31 00:55:27;;;;;;;1.40;1.17;;;13.30;99.90;;;;;;5198900;28;20535;-50
2022/08/31 00:58:02;;;;;;;0.97;0.97;;;13.20;99.90;;;;;;5207374;28;20472;-49
2022/08/31 01:00:33;;;;;;;1.63;1.07;;;13.20;99.90;;;;;;5211456;28;20433;-48
2022/08/31 01:03:05;;;;;;;1.23;1.23;;;13.20;99.90;;;;;;5221577;28;20510;-48
2022/08/31 01:05:39;;;;;;;1.13;0.70;;;13.10;99.90;;;;;;5218149;28;20194;-48
2022/08/31 01:08:10;;;;;;;4.83;1.30;;;13.10;99.90;;;;;;5219870;28;20441;-48
2022/08/31 01:10:42;;;;;;;1.90;1.17;;;13.10;99.90;;;;;;5198462;28;20429;-48
2022/08/31 01:13:14;;;;;;;0.87;0.87;;;13.00;99.90;;;;;;5208386;28;20417;-49
2022/08/31 01:15:51;;;;;;;1.77;1.10;;;13.00;99.90;;;;;;5204836;28;20473;-50
2022/08/31 01:18:23;;;;;;;2.20;1.40;;;13.00;99.90;;;;;;5209585;28;20472;-50
2022/08/31 01:20:59;;;;;;;1.40;1.30;;;13.00;99.90;;;;;;5217149;28;20557;-48
2022/08/31 01:23:38;;;;;;;6.20;1.30;;;13.00;99.90;;;;;;5216868;28;20560;-48
2022/08/31 01:26:13;;;;;;;1.03;0.93;;;13.10;99.90;;;;;;5201193;28;20766;-48
2022/08/31 01:28:44;;;;;;;1.13;1.00;;;13.20;99.90;;;;;;5198989;28;20522;-49
2022/08/31 01:31:23;;;;;;;3.60;1.20;;;13.30;99.90;;;;;;5215751;28;20453;-49
2022/08/31 01:33:54;;;;;;;2.87;1.10;;;13.40;99.90;;;;;;5202817;28;20434;-49
2022/08/31 01:36:25;;;;;;;1.50;1.40;;;13.40;99.90;;;;;;5201383;28;20434;-48
2022/08/31 01:38:56;;;;;;;2.30;1.70;;;13.50;99.90;;;;;;5219594;28;20469;-49
2022/08/31 01:41:27;;;;;;;2.50;1.53;;;13.50;99.90;;;;;;5226891;28;20613;-49
2022/08/31 01:43:57;;;;;;;1.43;1.33;;;13.50;99.90;;;;;;5208772;28;20190;-48
2022/08/31 01:46:28;;;;;;;1.70;1.30;;;13.60;99.90;;;;;;5222887;28;20187;-48
2022/08/31 01:48:58;;;;;;;3.70;1.20;;;13.60;99.90;;;;;;5224689;28;20202;-48
2022/08/31 01:51:29;;;;;;;1.20;1.10;;;13.70;99.90;;;;;;5221919;28;20222;-47
2022/08/31 01:54:00;;;;;;;2.93;1.33;;;13.70;99.90;;;;;;5209430;28;20192;-48
2022/08/31 01:56:34;;;;;;;7.17;1.90;;;13.70;99.90;;;;;;5207083;28;20222;-48
2022/08/31 01:59:06;;;;;;;1.20;1.20;;;13.70;99.90;;;;;;5221752;28;20950;-47
2022/08/31 02:01:42;;;;;;;1.10;1.00;;;13.70;99.90;;;;;;5219707;28;20529;-47
2022/08/31 02:04:13;;;;;;;8.43;1.50;;;13.70;99.90;;;;;;5226886;28;20494;-48
2022/08/31 02:06:48;;;;;;;1.20;1.10;;;13.70;99.90;;;;;;5224494;28;20514;-48
2022/08/31 02:09:20;;;;;;;1.37;1.27;;;13.70;99.90;;;;;;5221722;28;20436;-47
2022/08/31 02:11:51;;;;;;;3.07;1.20;;;13.70;99.90;;;;;;5219952;28;20456;-48
2022/08/31 02:14:22;;;;;;;3.57;1.80;;;13.70;99.90;;;;;;5221624;28;20430;-47
2022/08/31 02:16:53;;;;;;;4.13;1.33;;;13.70;99.90;;;;;;5193121;28;20850;-47
2022/08/31 02:19:24;;;;;;;1.50;1.43;;;13.80;99.90;;;;;;5227668;28;20413;-48
2022/08/31 02:21:54;;;;;;;1.40;1.17;;;13.80;99.90;;;;;;5226545;28;20453;-46
2022/08/31 02:24:25;;;;;;;1.30;1.30;;;13.80;99.90;;;;;;5223752;28;20249;-48
2022/08/31 02:26:56;;;;;;;1.47;1.20;;;13.80;99.90;;;;;;5209357;28;20268;-48
2022/08/31 02:29:26;;;;;;;5.20;1.50;;;13.80;99.90;;;;;;5189898;28;20242;-48
2022/08/31 02:31:57;;;;;;;0.73;0.70;;;13.80;99.90;;;;;;5227393;28;20215;-49
2022/08/31 02:34:28;;;;;;;1.43;1.40;;;13.80;99.90;;;;;;5215832;28;20266;-48
2022/08/31 02:36:58;;;;;;;1.10;1.10;;;13.70;99.90;;;;;;5216366;28;20179;-49
2022/08/31 02:39:29;;;;;;;2.60;1.23;;;13.70;99.90;;;;;;5216631;28;20179;-50
2022/08/31 02:42:00;;;;;;;2.70;1.30;;;13.70;99.90;;;;;;5219020;28;20203;-49
2022/08/31 02:44:30;;;;;;;6.93;1.90;;;13.70;99.90;;;;;;5211306;28;20183;-49
2022/08/31 02:47:01;;;;;;;1.20;1.20;;;13.60;99.90;;;;;;5227813;28;20724;-48
2022/08/31 02:49:32;;;;;;;2.30;1.63;;;13.60;99.90;;;;;;5228231;28;20189;-49
2022/08/31 02:52:03;;;;;;;3.50;1.50;;;13.50;99.90;;;;;;5209142;28;20614;-48
2022/08/31 02:54:33;;;;;;;3.30;1.27;;;13.50;99.90;;;;;;5224034;28;20183;-49
2022/08/31 02:57:04;;;;;;;1.40;1.40;;;13.50;99.90;;;;;;5221258;28;20214;-48
2022/08/31 02:59:36;;;;;;;1.10;1.10;;;13.50;99.90;;;;;;5210514;28;20278;-48
2022/08/31 03:02:06;;;;;;;1.60;1.50;;;13.40;99.90;;;;;;5206664;28;20206;-49
2022/08/31 03:04:37;;;;;;;2.63;1.43;;;13.40;99.90;;;;;;5218874;28;20500;-47
2022/08/31 03:07:08;;;;;;;1.30;1.23;;;13.30;99.90;;;;;;5215097;28;20219;-48
2022/08/31 03:09:38;;;;;;;1.57;1.47;;;13.30;99.90;;;;;;5219647;28;20237;-49
2022/08/31 03:12:09;;;;;;;3.00;1.50;;;13.30;99.90;;;;;;5206321;28;20207;-49
2022/08/31 03:14:40;;;;;;;3.23;1.27;;;13.30;99.90;;;;;;5239879;28;20265;-49
2022/08/31 03:17:10;;;;;;;1.40;1.30;;;13.30;99.90;;;;;;5225565;28;20203;-48
2022/08/31 03:19:41;;;;;;;2.20;1.43;;;13.30;99.90;;;;;;5234188;28;20632;-48
2022/08/31 03:22:13;;;;;;;3.53;1.50;;;13.30;99.90;;;;;;5210857;28;20207;-48
2022/08/31 03:24:44;;;;;;;2.23;1.83;;;13.30;99.90;;;;;;5220747;28;20195;-49
2022/08/31 03:27:14;;;;;;;1.60;1.53;;;13.30;99.90;;;;;;5217200;28;20786;-48
2022/08/31 03:29:45;;;;;;;2.73;2.00;;;13.30;99.90;;;;;;5218052;28;20182;-48
2022/08/31 03:32:16;;;;;;;3.67;1.60;;;13.30;99.90;;;;;;5214549;28;20715;-48
2022/08/31 03:34:46;;;;;;;2.50;1.47;;;13.30;99.90;;;;;;5204631;28;20195;-47
2022/08/31 03:37:20;;;;;;;1.67;1.57;;;13.20;99.90;;;;;;5219078;28;20457;-50
2022/08/31 03:39:51;;;;;;;1.97;1.87;;;13.10;99.90;;;;;;5221359;28;20175;-48
2022/08/31 03:42:21;;;;;;;2.00;1.70;;;13.10;99.90;;;;;;5205857;28;20799;-48
2022/08/31 03:44:52;;;;;;;1.83;1.73;;;13.00;99.90;;;;;;5220859;28;20266;-46
2022/08/31 03:47:22;;;;;;;2.13;2.03;;;13.00;99.90;;;;;;5207169;28;20183;-47
2022/08/31 03:49:53;;;;;;;2.63;1.70;;;12.90;99.90;;;;;;5226797;28;20625;-50
2022/08/31 03:52:24;;;;;;;2.00;1.57;;;12.90;99.90;;;;;;5225232;28;20581;-51
2022/08/31 03:54:54;;;;;;;5.10;2.40;;;12.80;99.90;;;;;;5205377;28;20189;-51
2022/08/31 03:57:25;;;;;;;6.90;1.80;;;12.80;99.90;;;;;;5203688;28;20203;-51
2022/08/31 03:59:56;;;;;;;2.87;1.93;;;12.80;99.90;;;;;;5218078;28;20569;-51
2022/08/31 04:02:27;;;;;;;2.00;2.00;;;12.80;99.90;;;;;;5220642;28;20191;-52
2022/08/31 04:04:57;;;;;;;1.43;1.43;;;12.80;99.90;;;;;;5215777;28;20421;-52
2022/08/31 04:07:28;;;;;;;2.90;2.03;;;12.70;99.90;;;;;;5208989;28;20666;-52
2022/08/31 04:09:59;;;;;;;2.77;1.73;;;12.70;99.90;;;;;;5208982;28;20183;-51
2022/08/31 04:12:29;;;;;;;1.50;1.40;;;12.60;99.90;;;;;;5216846;28;20227;-52
2022/08/31 04:15:01;;;;;;;2.07;1.90;;;12.60;99.90;;;;;;5187831;28;20237;-52
2022/08/31 04:17:32;;;;;;;1.90;1.80;;;12.60;99.90;;;;;;5221107;28;20195;-52
2022/08/31 04:20:04;;;;;;;4.43;2.03;;;12.60;99.90;;;;;;5225588;28;20874;-51
2022/08/31 04:22:35;;;;;;;1.50;1.43;;;12.60;99.90;;;;;;5212943;28;20202;-51
2022/08/31 04:25:06;;;;;;;1.70;1.60;;;12.70;99.90;;;;;;5208866;28;20433;-53
2022/08/31 04:27:39;;;;;;;1.70;1.60;;;12.70;99.90;;;;;;5222506;28;20237;-52
2022/08/31 04:30:10;;;;;;;3.27;1.40;;;12.70;99.90;;;;;;5203760;28;20441;-52
2022/08/31 04:32:41;;;;;;;7.13;2.40;;;12.80;99.90;;;;;;5219745;28;20450;-52
2022/08/31 04:35:11;;;;;;;1.77;1.67;;;12.80;99.90;;;;;;5226613;28;20446;-51
2022/08/31 04:37:42;;;;;;;5.20;2.10;;;12.70;99.90;;;;;;5216236;28;20203;-52
2022/08/31 04:40:18;;;;;;;11.67;2.50;;;12.70;99.90;;;;;;5220725;28;20193;-51
2022/08/31 04:42:49;;;;;;;2.77;1.87;;;12.80;99.90;;;;;;5207332;28;20568;-52
2022/08/31 04:45:20;;;;;;;3.70;1.60;;;12.80;99.90;;;;;;5211542;28;20488;-51
2022/08/31 04:47:51;;;;;;;2.27;1.80;;;12.70;99.90;;;;;;5204425;28;20438;-52
2022/08/31 04:50:22;;;;;;;4.20;2.47;;;12.70;99.90;;;;;;5221052;28;20637;-51
2022/08/31 04:52:52;;;;;;;2.73;2.13;;;12.70;99.90;;;;;;5217246;28;20752;-51
2022/08/31 04:55:23;;;;;;;5.13;2.60;;;12.80;99.90;;;;;;5220631;28;20248;-51
2022/08/31 04:57:53;;;;;;;1.90;1.80;;;12.80;99.90;;;;;;5222361;28;20213;-52
2022/08/31 05:00:24;;;;;;;3.43;1.90;;;12.80;99.90;;;;;;5219973;28;20258;-51
2022/08/31 05:02:55;;;;;;;5.70;2.43;;;12.80;99.90;;;;;;5197254;28;20203;-52
2022/08/31 05:05:25;;;;;;;2.33;2.23;;;13.00;99.90;;;;;;5221346;28;20225;-51
2022/08/31 05:07:56;;;;;;;2.77;1.87;;;13.60;99.90;;;;;;5214811;28;20193;-50
2022/08/31 05:10:26;;;;;;;2.10;1.50;;;14.40;99.90;;;;;;5220294;28;20274;-51
2022/08/31 05:12:57;;;;;;;2.77;1.60;;;15.20;99.90;;;;;;5217475;28;20207;-50
2022/08/31 05:15:28;;;;;;;5.73;1.63;;;15.40;99.90;;;;;;5207665;28;20189;-51
2022/08/31 05:17:59;;;;;;;1.90;1.50;;;15.60;99.90;;;;;;5217526;28;20203;-51
2022/08/31 05:20:31;;;;;;;1.50;1.50;;;15.70;99.90;;;;;;5222633;28;20232;-52
2022/08/31 05:23:02;;;;;;;3.43;2.17;;;16.40;99.90;;;;;;5220080;28;20831;-51
2022/08/31 05:25:32;;;;;;;4.23;1.73;;;16.10;99.90;;;;;;5228585;28;20433;-51
2022/08/31 05:28:04;;;;;;;4.20;2.00;;;15.80;99.90;;;;;;5228983;28;20190;-51
2022/08/31 05:30:34;;;;;;;2.10;1.33;;;15.20;99.90;;;;;;5224251;28;20220;-51
2022/08/31 05:33:05;;;;;;;3.03;1.53;;;15.00;99.90;;;;;;5226573;28;20821;-52
2022/08/31 05:35:36;;;;;;;5.93;1.60;;;14.60;99.90;;;;;;5225145;28;20207;-52
2022/08/31 05:38:06;;;;;;;1.53;1.40;;;14.50;99.90;;;;;;5227742;28;20214;-51
2022/08/31 05:40:37;;;;;;;4.90;1.67;;;14.80;99.90;;;;;;5225777;28;20543;-52
2022/08/31 05:43:08;;;;;;;1.60;1.50;;;16.50;99.90;;;;;;5228533;28;20266;-51
2022/08/31 05:45:41;;;;;;;1.80;1.70;;;18.20;99.90;;;;;;5211297;28;20258;-51
2022/08/31 05:48:12;;;;;;;4.80;1.80;;;19.90;99.90;;;;;;5209842;28;20187;-51
2022/08/31 05:50:42;;;;;;;1.47;1.37;;;21.60;99.90;;;;;;5220823;28;20968;-50
2022/08/31 05:53:14;;;;;;;4.37;1.87;;;22.50;93.00;;;;;;5208026;28;20202;-49
2022/08/31 05:55:45;;;;;;;1.23;1.13;;;23.20;89.40;;;;;;5220662;28;20187;-50
2022/08/31 05:58:15;;;;;;;3.47;1.30;;;24.40;74.90;;;;;;5194241;28;20461;-52
2022/08/31 06:00:46;;;;;;;1.50;1.40;;;25.30;66.60;;;;;;5217033;28;20215;-51
2022/08/31 06:03:16;;;;;;;1.90;1.40;;;25.40;61.90;;;;;;5208977;28;20190;-52
2022/08/31 06:05:49;;;;;;;1.93;1.57;;;25.20;61.70;;;;;;5215914;28;20182;-49
2022/08/31 06:08:20;;;;;;;1.23;1.13;;;25.00;60.90;;;;;;5225998;28;20178;-48
2022/08/31 06:10:50;;;;;;;1.63;1.10;;;24.80;62.50;;;;;;5221474;28;20971;-48
2022/08/31 06:13:22;;;;;;;1.60;1.17;;;25.20;60.10;;;;;;5219766;28;20452;-48
2022/08/31 06:15:54;;;;;;;7.67;1.43;;;25.80;58.60;;;;;;5207385;28;20206;-49
2022/08/31 06:18:25;;;;;;;6.20;1.43;;;26.40;56.60;;;;;;5218147;28;20483;-48
2022/08/31 06:21:08;;;;;;;2.60;1.80;;;27.00;54.30;;;;;;5206368;28;20521;-49
2022/08/31 06:23:41;;;;;;;1.10;1.00;;;27.10;53.40;;;;;;5219543;28;20245;-48
2022/08/31 06:26:15;;;;;;;1.60;1.50;;;27.10;53.00;;;;;;5224507;28;20409;-49
2022/08/31 06:28:49;;;;;;;1.10;1.10;;;27.20;51.50;;;;;;5210611;28;20707;-50
2022/08/31 06:31:28;;;;;;;1.93;1.53;;;27.40;51.10;;;;;;5210568;28;20493;-49
2022/08/31 06:34:00;;;;;;;1.53;1.20;;;27.90;50.20;;;;;;5220032;28;20451;-48
2022/08/31 06:36:31;;;;;;;1.73;1.20;;;27.90;48.80;;;;;;5210163;28;20433;-48
2022/08/31 06:39:03;;;;;;;0.87;0.83;;;27.80;48.50;;;;;;5225785;28;20461;-49
2022/08/31 06:41:36;;;;;;;1.57;1.47;;;28.20;48.20;;;;;;5226920;28;20430;-50
2022/08/31 06:44:10;;;;;;;2.97;1.17;;;28.40;47.30;;;;;;5191777;28;20429;-48
2022/08/31 06:46:41;;;;;;;1.83;1.20;;;28.30;47.10;;;;;;5221818;28;20515;-47
2022/08/31 06:49:11;;;;;;;4.53;1.20;;;28.50;47.30;;;;;;5221206;28;20532;-47
2022/08/31 06:51:43;;;;;;;1.00;0.87;;;29.10;46.10;;;;;;5221189;28;20206;-48
2022/08/31 06:54:15;;;;;;;0.60;0.60;;;29.50;44.00;;;;;;5209095;28;20245;-48
2022/08/31 06:56:46;;;;;;;1.60;1.03;;;28.70;44.90;;;;;;5204322;28;20464;-47
2022/08/31 06:59:16;;;;;;;1.87;0.93;;;28.20;45.90;;;;;;5228263;28;20465;-49
2022/08/31 07:01:47;;;;;;;2.27;1.20;;;28.40;46.20;;;;;;5209227;28;20580;-48
2022/08/31 07:04:17;;;;;;;1.50;0.70;;;28.80;45.20;;;;;;5206478;28;20254;-49
2022/08/31 07:06:48;;;;;;;1.63;1.00;;;28.80;44.90;;;;;;5203139;28;20901;-47
2022/08/31 07:09:19;;;;;;;2.53;0.70;;;29.60;43.80;;;;;;5222313;28;20183;-48
2022/08/31 07:11:51;;;;;;;2.93;1.07;;;29.70;42.00;;;;;;5183727;28;20204;-48
2022/08/31 07:14:23;;;;;;;1.43;1.00;;;29.60;42.90;;;;;;5226998;28;20206;-47
2022/08/31 07:16:55;;;;;;;4.70;0.70;;;30.00;40.70;;;;;;5210511;28;20531;-49
2022/08/31 07:19:26;;;;;;;1.00;0.70;;;29.70;40.10;;;;;;5200818;28;20434;-47
2022/08/31 07:21:59;;;;;;;3.90;0.70;;;29.20;40.50;;;;;;5201956;28;20807;-49
2022/08/31 07:24:33;;;;;;;0.60;0.60;;;28.80;41.30;;;;;;5201910;28;20517;-48
2022/08/31 07:27:17;;;;;;;1.10;0.80;;;29.30;40.90;;;;;;5201431;28;20541;-48
2022/08/31 07:29:47;;;;;;;0.87;0.70;;;29.20;40.80;;;;;;5223590;28;20429;-48
2022/08/31 07:32:18;;;;;;;0.77;0.77;;;28.80;40.90;;;;;;5226618;28;20437;-49
2022/08/31 07:34:48;;;;;;;1.27;1.10;;;28.50;41.40;;;;;;5223667;28;20182;-48
2022/08/31 07:43:03;;;;;;;1.17;0.97;;;29.40;41.40;;;;;;5223857;28;20445;-47
2022/08/31 07:45:34;;;;;;;0.77;0.77;;;29.60;40.00;;;;;;5210049;28;20916;-46
2022/08/31 07:48:04;;;;;;;0.80;0.53;;;29.00;39.30;;;;;;5227372;28;20442;-46
2022/08/31 07:50:37;;;;;;;0.80;0.80;;;28.50;40.00;;;;;;5228561;28;20628;-51
2022/08/31 07:53:10;;;;;;;1.90;0.67;;;28.50;40.60;;;;;;5211374;28;20195;-47
2022/08/31 07:55:44;;;;;;;4.93;0.90;;;28.50;40.90;;;;;;5223441;28;20429;-47
2022/08/31 07:58:16;;;;;;;0.97;0.60;;;29.00;41.10;;;;;;5219919;28;20515;-47
2022/08/31 08:00:48;;;;;;;1.13;0.80;;;29.70;39.70;;;;;;5206373;28;20431;-47
2022/08/31 08:03:18;;;;;;;1.90;0.67;;;29.90;37.80;;;;;;5198074;28;20425;-47
2022/08/31 08:05:50;;;;;;;1.30;1.20;;;29.60;38.70;;;;;;5224678;28;20420;-47
2022/08/31 08:08:21;;;;;;;3.43;0.73;;;30.40;38.00;;;;;;5196570;28;20262;-47
2022/08/31 08:10:52;;;;;;;4.20;1.10;;;31.40;37.70;;;;;;5205527;28;20977;-46
2022/08/31 08:13:22;;;;;;;2.00;0.90;;;31.80;36.20;;;;;;5223387;28;20437;-47
2022/08/31 08:15:53;;;;;;;1.77;0.70;;;31.70;36.80;;;;;;5224640;28;20179;-46
2022/08/31 08:18:24;;;;;;;0.63;0.63;;;30.30;38.90;;;;;;5209067;28;20213;-47
2022/08/31 08:20:55;;;;;;;0.83;0.60;;;29.70;40.20;;;;;;5207515;28;20183;-47
2022/08/31 08:23:26;;;;;;;0.87;0.67;;;29.10;40.90;;;;;;5227167;28;20171;-46
2022/08/31 08:26:00;;;;;;;0.70;0.50;;;27.90;42.80;;;;;;5192460;28;20540;-51
2022/08/31 08:28:30;;;;;;;1.80;0.80;;;27.40;44.40;;;;;;5225521;28;20182;-46
2022/08/31 08:31:01;;;;;;;0.67;0.67;;;27.00;44.60;;;;;;5222192;28;20568;-47
2022/08/31 08:33:33;;;;;;;2.50;0.67;;;26.20;46.00;;;;;;5225500;28;20263;-49
2022/08/31 08:36:08;;;;;;;1.27;1.00;;;25.60;47.60;;;;;;5202348;28;20599;-47
2022/08/31 08:38:42;;;;;;;0.80;0.80;;;24.90;49.60;;;;;;5222287;28;20496;-47
2022/08/31 08:41:22;;;;;;;1.07;0.97;;;23.90;50.40;;;;;;5226799;28;20473;-48
2022/08/31 08:43:56;;;;;;;1.20;0.67;;;23.00;51.70;;;;;;5225039;28;20777;-48
2022/08/31 08:46:51;;;;;;;0.83;0.80;;;22.80;52.80;;;;;;5227348;28;20521;-47
2022/08/31 08:49:31;;;;;;;0.50;0.50;;;22.70;53.30;;;;;;5207739;28;20944;-47
2022/08/31 08:52:09;;;;;;;0.67;0.67;;;22.50;53.60;;;;;;5221919;28;20496;-49
2022/08/31 08:54:45;;;;;;;1.00;0.90;;;22.00;54.50;;;;;;5220175;28;21000;-47
2022/08/31 08:57:29;;;;;;;1.33;1.10;;;21.70;55.20;;;;;;5224455;28;21111;-46
2022/08/31 09:00:09;;;;;;;0.77;0.60;;;21.40;55.10;;;;;;5204297;28;20500;-48
2022/08/31 09:02:57;;;;;;;2.83;0.87;;;21.30;54.50;;;;;;5220499;28;20445;-49
2022/08/31 09:05:54;;;;;;;2.50;0.80;;;21.30;55.30;;;;;;5197879;28;20458;-46
2022/08/31 09:08:43;;;;;;;1.03;0.93;;;21.30;55.80;;;;;;5184821;28;20457;-48
2022/08/31 09:11:48;;;;;;;1.97;0.80;;;21.40;54.40;;;;;;5204826;28;20535;-46
2022/08/31 09:14:50;;;;;;;2.10;0.70;;;21.20;54.60;;;;;;5227222;28;20453;-47
2022/08/31 09:17:36;;;;;;;0.60;0.60;;;20.80;55.20;;;;;;5224218;28;20560;-47
2022/08/31 09:20:11;;;;;;;0.70;0.63;;;20.40;56.30;;;;;;5216396;28;20870;-47
2022/08/31 09:22:54;;;;;;;0.83;0.63;;;20.30;56.70;;;;;;5196359;28;20448;-46
2022/08/31 09:25:36;;;;;;;5.10;0.70;;;20.30;57.10;;;;;;5223298;28;20465;-47
2022/08/31 09:28:13;;;;;;;0.90;0.90;;;20.30;55.50;;;;;;5215918;28;20437;-51
2022/08/31 09:30:44;;;;;;;2.10;0.90;;;20.30;54.70;;;;;;5225463;28;20444;-47
2022/08/31 09:33:19;;;;;;;0.70;0.70;;;20.30;55.10;;;;;;5221128;28;20929;-48
2022/08/31 09:35:57;;;;;;;1.70;0.57;;;20.40;55.40;;;;;;5227116;28;20194;-46
2022/08/31 09:38:30;;;;;;;1.80;0.60;;;20.40;55.00;;;;;;5224679;28;20457;-46
2022/08/31 09:41:02;;;;;;;0.80;0.80;;;20.50;55.20;;;;;;5188032;28;20636;-46
2022/08/31 09:43:36;;;;;;;0.57;0.57;;;20.60;55.50;;;;;;5216911;28;20525;-48
2022/08/31 09:46:22;;;;;;;0.70;0.53;;;20.80;54.50;;;;;;5216974;28;20448;-49
2022/08/31 09:48:57;;;;;;;0.60;0.53;;;20.70;54.20;;;;;;5218761;28;20522;-48
2022/08/31 09:51:32;;;;;;;0.60;0.60;;;20.70;54.60;;;;;;5239312;22;20492;-48
2022/08/31 09:57:05;;;;;;;2.93;0.63;;;20.80;55.00;;;;;;5255228;28;20431;-50
2022/08/31 09:59:46;;;;;;;0.70;0.70;;;20.80;55.60;;;;;;5264237;28;20424;-50
2022/08/31 10:02:21;;;;;;;0.60;0.60;;;20.70;55.70;;;;;;5253542;28;20768;-49
2022/08/31 10:04:59;;;;;;;1.13;0.50;;;20.80;55.00;;;;;;5236804;28;20431;-50
2022/08/31 10:08:03;;;;;;;0.40;0.40;;;20.80;54.40;;;;;;5247255;28;20491;-49
2022/08/31 10:10:37;;;;;;;1.30;0.67;;;20.60;53.80;;;;;;5233699;28;20436;-49
2022/08/31 10:13:21;;;;;;;0.80;0.80;;;20.70;54.40;;;;;;5242227;28;20448;-49
2022/08/31 10:16:00;;;;;;;0.60;0.60;;;20.90;53.50;;;;;;5245047;28;20523;-49
2022/08/31 10:18:49;;;;;;;0.70;0.70;;;20.80;52.80;;;;;;5239517;28;20459;-50
2022/08/31 10:21:37;;;;;;;2.50;0.60;;;20.80;51.80;;;;;;5236208;28;20433;-51
2022/08/31 10:24:31;;;;;;;1.13;0.70;;;20.80;52.70;;;;;;5248882;28;20487;-53
2022/08/31 10:27:15;;;;;;;0.73;0.73;;;20.80;54.40;;;;;;5244893;28;20409;-52
2022/08/31 10:30:37;;;;;;;0.70;0.70;;;21.20;54.90;;;;;;5240483;28;20900;-49
2022/08/31 10:33:20;;;;;;;0.60;0.60;;;21.20;53.40;;;;;;5188790;28;20454;-51
2022/08/31 10:35:53;;;;;;;0.70;0.57;;;21.10;54.40;;;;;;5206424;28;20429;-49
2022/08/31 10:38:34;;;;;;;1.30;0.73;;;21.10;52.90;;;;;;5227376;28;20456;-49
2022/08/31 10:41:15;;;;;;;0.97;0.50;;;21.10;52.30;;;;;;5244084;28;20433;-51
2022/08/31 10:44:00;;;;;;;1.43;1.00;;;21.20;51.40;;;;;;5247673;28;20424;-48
2022/08/31 10:46:33;;;;;;;2.00;0.70;;;21.50;51.40;;;;;;5236969;28;20428;-49
2022/08/31 10:49:05;;;;;;;0.63;0.50;;;21.70;51.20;;;;;;5249157;28;20439;-51
2022/08/31 10:51:47;;;;;;;4.67;1.20;;;21.60;51.40;;;;;;5244807;28;20464;-48
2022/08/31 10:54:46;;;;;;;0.70;0.70;;;21.50;51.60;;;;;;5231808;28;20523;-51
2022/08/31 10:57:31;;;;;;;1.67;0.87;;;21.70;52.30;;;;;;5241633;28;20413;-52
2022/08/31 11:03:26;;;;;;;1.33;1.00;;;22.20;50.10;;;;;;5247157;28;20433;-51
2022/08/31 11:06:00;;;;;;;1.07;0.87;;;21.90;50.20;;;;;;5232555;28;20451;-51
2022/08/31 11:09:11;;;;;;;3.70;0.70;;;21.80;50.70;;;;;;5247435;28;20439;-49
2022/08/31 11:11:46;;;;;;;0.97;0.80;;;21.80;49.90;;;;;;5243221;28;20445;-50
2022/08/31 11:14:47;;;;;;;0.87;0.87;;;21.60;50.70;;;;;;5244418;28;20455;-51
2022/08/31 11:17:30;;;;;;;0.80;0.80;;;21.40;51.00;;;;;;5246133;28;20789;-50
2022/08/31 11:20:32;;;;;;;4.07;0.80;;;21.20;50.70;;;;;;5245763;28;20482;-50
2022/08/31 11:23:25;;;;;;;0.70;0.70;;;21.10;51.50;;;;;;5245585;28;20455;-48
2022/08/31 11:26:33;;;;;;;3.07;0.90;;;21.20;51.90;;;;;;5241169;28;20425;-50
2022/08/31 11:29:42;;;;;;;0.83;0.83;;;21.00;51.80;;;;;;5238715;28;20944;-51
2022/08/31 11:32:26;;;;;;;1.10;0.63;;;21.00;52.50;;;;;;5234536;28;20463;-50
2022/08/31 11:35:07;;;;;;;0.70;0.60;;;21.10;52.00;;;;;;5247663;28;20774;-49
2022/08/31 11:37:53;;;;;;;0.80;0.67;;;21.00;52.40;;;;;;5245835;28;20885;-48
2022/08/31 11:40:42;;;;;;;0.60;0.60;;;21.00;52.60;;;;;;5259113;28;20447;-49
2022/08/31 11:43:30;;;;;;;3.20;0.60;;;21.00;52.30;;;;;;5247547;28;20461;-49
2022/08/31 11:46:24;;;;;;;0.50;0.50;;;21.10;52.00;;;;;;5242015;28;20539;-50
2022/08/31 11:48:54;;;;;;;1.00;0.83;;;21.10;51.60;;;;;;5238833;28;20437;-51
2022/08/31 11:51:40;;;;;;;1.40;0.87;;;21.30;51.40;;;;;;5236262;28;20967;-50
2022/08/31 11:54:24;;;;;;;0.90;0.60;;;21.50;51.50;;;;;;5238990;28;20242;-50
2022/08/31 11:56:55;;;;;;;1.90;0.70;;;21.70;51.20;;;;;;5235118;28;20500;-50
2022/08/31 11:59:34;;;;;;;0.67;0.67;;;22.00;50.40;;;;;;5246037;28;20506;-50
2022/08/31 12:02:19;;;;;;;0.50;0.50;;;22.10;49.70;;;;;;5242721;28;20554;-50
2022/08/31 12:04:59;;;;;;;1.97;0.83;;;22.10;50.20;;;;;;5236873;28;20471;-49
2022/08/31 12:07:37;;;;;;;0.57;0.57;;;22.00;49.60;;;;;;5223505;28;20531;-48
2022/08/31 12:10:13;;;;;;;0.50;0.50;;;21.90;48.90;;;;;;5240632;28;20428;-49
2022/08/31 12:13:17;;;;;;;0.70;0.70;;;21.80;49.30;;;;;;5242469;28;21039;-50
2022/08/31 12:16:26;;;;;;;0.50;0.50;;;21.80;49.10;;;;;;5238332;28;20429;-49
2022/08/31 12:25:28;;;;;;;1.57;0.80;;;21.50;49.80;;;;;;5238285;28;20882;-51
2022/08/31 12:28:15;;;;;;;0.60;0.60;;;21.30;49.80;;;;;;5247852;28;20426;-48
2022/08/31 12:30:53;;;;;;;0.77;0.77;;;21.30;50.00;;;;;;5231167;28;20757;-48
2022/08/31 12:33:26;;;;;;;1.70;0.73;;;21.50;50.20;;;;;;5227268;28;20856;-50
2022/08/31 12:36:15;;;;;;;1.90;0.67;;;21.80;49.10;;;;;;5240510;28;20507;-49
2022/08/31 12:39:09;;;;;;;0.80;0.80;;;21.90;48.50;;;;;;5242718;28;20456;-49
2022/08/31 12:41:44;;;;;;;0.50;0.50;;;22.00;48.30;;;;;;5245356;28;20544;-50
2022/08/31 12:44:32;;;;;;;0.53;0.53;;;22.00;46.60;;;;;;5244304;28;20427;-50
2022/08/31 12:47:20;;;;;;;0.97;0.70;;;21.90;46.60;;;;;;5235506;28;20524;-49
2022/08/31 12:50:13;;;;;;;0.93;0.90;;;21.70;46.20;;;;;;5239673;28;20436;-50
2022/08/31 12:53:16;;;;;;;1.20;0.70;;;21.50;46.30;;;;;;5237577;28;20530;-49
2022/08/31 12:55:58;;;;;;;1.67;0.70;;;21.40;47.20;;;;;;5239497;28;20435;-49
2022/08/31 12:59:00;;;;;;;0.97;0.67;;;21.50;47.90;;;;;;5227653;28;20933;-49
2022/08/31 13:01:31;;;;;;;1.47;0.57;;;21.70;47.50;;;;;;5244853;28;20535;-50
2022/08/31 13:04:02;;;;;;;0.90;0.90;;;22.00;46.90;;;;;;5240721;28;20452;-50
2022/08/31 13:06:39;;;;;;;1.23;0.40;;;22.30;46.20;;;;;;5255128;28;20236;-48
2022/08/31 13:09:31;;;;;;;4.73;1.30;;;22.40;44.80;;;;;;5231610;28;20889;-50
2022/08/31 13:12:02;;;;;;;1.23;0.70;;;22.40;46.20;;;;;;5243785;28;20456;-49
2022/08/31 13:14:41;;;;;;;0.47;0.47;;;22.30;45.80;;;;;;5245595;28;20532;-49
2022/08/31 13:17:16;;;;;;;3.03;2.73;;;22.00;45.90;;;;;;5244273;28;20183;-49
2022/08/31 13:19:51;;;;;;;0.97;0.83;;;21.80;46.20;;;;;;5244458;28;20489;-50
2022/08/31 13:22:40;;;;;;;0.57;0.50;;;21.70;46.50;;;;;;5242906;28;20443;-48
2022/08/31 13:25:34;;;;;;;1.00;0.97;;;21.70;46.60;;;;;;5242068;28;20452;-48
2022/08/31 13:28:20;;;;;;;0.60;0.60;;;21.60;46.70;;;;;;5242124;28;20460;-51
2022/08/31 13:30:57;;;;;;;0.90;0.90;;;21.60;46.70;;;;;;5244387;28;20433;-49
2022/08/31 13:33:31;;;;;;;1.23;0.83;;;21.80;46.10;;;;;;5234740;28;20592;-48
2022/08/31 13:36:08;;;;;;;0.60;0.60;;;21.90;44.80;;;;;;5246845;28;20450;-49
2022/08/31 13:38:52;;;;;;;1.50;0.90;;;22.40;45.70;;;;;;5247091;28;20649;-49
2022/08/31 13:41:28;;;;;;;1.07;1.07;;;22.80;45.70;;;;;;5249618;28;20475;-49
2022/08/31 13:44:01;;;;;;;3.63;2.50;;;23.00;45.00;;;;;;5238668;28;20910;-49
2022/08/31 13:46:35;;;;;;;2.70;1.13;;;22.90;45.60;;;;;;5242924;28;20442;-50
2022/08/31 13:49:19;;;;;;;4.40;0.80;;;22.70;44.80;;;;;;5243243;28;20488;-49
2022/08/31 13:51:50;;;;;;;1.70;1.60;;;22.50;45.50;;;;;;5242893;28;20471;-49
2022/08/31 13:54:33;;;;;;;2.77;1.10;;;22.40;45.70;;;;;;5225288;28;20432;-53